Latest Weather Observations for Blackwater Airport

IDQ60801

Issued at 4:02 am EST Sunday 29 May 2016 (issued every 30 minutes, with the page automatically refreshed every 10 minutes)

About weather observations | Map of weather stations | Latest weather observations for QLD | Other Formats
Station Details ID: 035134 Name: BLACKWATER AIRPORT Lat: -23.60 Lon: 148.81 Height: 192.95 m
Data from the previous 72 hours. | See also: Recent months at Blackwater Airport
Date/Time
EST
Temp
°C
App
Temp
°C
Dew
Point
Rel
Hum
%
Delta-T
°C
Wind Press
QNH
hPa
Press
MSL
hPa
Rain
since 9 am
mm
Dir
 
Spd
km/h
Gust
km/h
Spd
kts
Gust
kts
29/04:00am 12.1 7.1 1.4 48 4.6 S 17 20 9 11 1017.4 1016.8 0.0
29/03:30am 10.8 5.3 0.8 50 4.2 S 19 20 10 11 1017.4 1016.8 0.0
29/03:00am 11.6 6.2 1.3 49 4.4 S 19 20 10 11 1017.2 1016.6 0.0
29/02:30am 12.8 7.8 1.5 46 4.9 S 17 20 9 11 1017.2 1016.6 0.0
29/02:00am 12.2 7.6 1.8 49 4.5 S 15 19 8 10 1017.4 1016.8 0.0
29/01:30am 10.9 6.3 1.7 53 3.9 SSW 15 15 8 8 1017.6 1017.0 0.0
29/01:00am 11.0 6.4 1.8 53 3.9 SSW 15 17 8 9 1017.3 1016.7 0.0
29/12:30am 12.6 7.8 2.5 50 4.5 SSW 17 17 9 9 1017.2 1016.6 0.0
29/12:00am 11.7 7.5 1.9 51 4.2 SSW 13 15 7 8 1017.5 1016.9 0.0
 
Date/Time
EST
Temp
°C
App
Temp
°C
Dew
Point
Rel
Hum
%
Delta-T
°C
Wind Press
QNH
hPa
Press
MSL
hPa
Rain
since 9 am
mm
Dir
 
Spd
km/h
Gust
km/h
Spd
kts
Gust
kts
28/11:30pm 12.3 8.1 1.9 49 4.5 SW 13 17 7 9 1017.7 1017.1 0.0
28/11:00pm 11.4 7.4 2.7 55 3.8 SW 13 15 7 8 1017.7 1017.1 0.0
28/10:30pm 12.5 7.7 2.7 51 4.3 SSW 17 20 9 11 1017.5 1016.9 0.0
28/10:00pm 12.4 7.8 3.6 55 4.0 SSW 17 20 9 11 1017.5 1016.9 0.0
28/09:30pm 13.1 8.6 4.3 55 4.1 S 17 20 9 11 1017.2 1016.6 0.0
28/09:00pm 13.7 9.3 4.6 54 4.2 SSW 17 17 9 9 1017.2 1016.6 0.0
28/08:30pm 14.5 10.6 5.3 54 4.4 SSW 15 17 8 9 1017.1 1016.5 0.0
28/08:00pm 13.9 9.5 5.0 55 4.2 S 17 19 9 10 1016.8 1016.2 0.0
28/07:30pm 15.3 11.2 4.4 48 5.1 S 15 17 8 9 1016.5 1015.9 0.0
28/07:00pm 16.1 12.0 4.2 45 5.6 SSW 15 17 8 9 1016.2 1015.6 0.0
28/06:30pm 18.1 15.1 3.9 39 6.7 SSW 9 11 5 6 1015.9 1015.3 0.0
28/06:00pm 18.8 15.3 3.4 36 7.3 WSW 11 13 6 7 1015.5 1014.9 0.0
28/05:30pm 21.2 17.3 3.4 31 8.6 WSW 13 17 7 9 1015.3 1014.7 0.0
28/05:00pm 22.8 17.9 4.3 30 9.2 SW 19 26 10 14 1015.1 1014.5 0.0
28/04:30pm 23.7 18.2 4.1 28 9.7 WSW 22 28 12 15 1015.0 1014.4 0.0
28/04:00pm 24.1 18.7 4.5 28 9.8 WSW 22 28 12 15 1014.7 1014.1 0.0
28/03:30pm 24.4 18.6 4.2 27 10.1 WSW 24 32 13 17 1014.4 1013.8 0.0
28/03:00pm 25.5 20.6 7.1 31 9.8 WSW 22 33 12 18 1014.2 1013.6 0.0
28/02:30pm 25.3 21.2 7.9 33 9.3 WSW 19 28 10 15 1014.3 1013.7 0.0
28/02:00pm 26.2 22.5 9.5 35 9.3 WSW 19 28 10 15 1014.4 1013.8 0.0
28/01:30pm 25.2 22.6 9.5 37 8.7 W 13 22 7 12 1014.6 1014.0 0.0
28/01:00pm 23.7 21.5 9.3 40 7.9 W 11 19 6 10 1015.0 1014.4 0.0
28/12:30pm 22.8 18.6 7.4 37 8.1 SW 19 28 10 15 1015.6 1015.0 0.0
28/12:00pm 24.1 22.4 9.7 40 7.9 WSW 9 20 5 11 1015.9 1015.3 0.0
28/11:30am 23.0 20.2 10.1 44 7.1 SSW 15 22 8 12 1016.4 1015.8 0.0
28/11:00am 23.4 21.3 11.1 46 6.9 SW 13 22 7 12 1016.7 1016.1 0.0
28/10:30am 22.2 20.1 11.3 50 6.1 SSW 13 24 7 13 1017.0 1016.4 0.0
28/10:00am 21.3 20.0 11.1 52 5.7 S 9 15 5 8 1017.5 1016.9 0.0
28/09:30am 21.2 19.7 11.8 55 5.3 SSE 11 19 6 10 1017.6 1017.0 0.0
28/09:00am 20.1 17.8 11.6 58 4.7 SSE 15 20 8 11 1017.4 1016.8 0.0
28/08:30am 19.5 17.6 11.8 61 4.3 SSW 13 17 7 9 1017.4 1016.8 0.0
28/08:00am 18.2 16.1 11.0 63 3.9 SW 13 15 7 8 1017.0 1016.4 0.0
28/07:30am 15.9 14.2 10.0 68 3.1 WSW 9 11 5 6 1016.4 1015.8 0.0
28/07:00am 13.3 11.5 8.0 70 2.6 WSW 7 9 4 5 1016.3 1015.7 0.0
28/06:30am 14.2 12.6 8.6 69 2.8 WSW 7 11 4 6 1015.7 1015.1 0.0
28/06:00am 13.5 11.6 7.7 68 2.9 W 7 7 4 4 1015.4 1014.8 0.0
28/05:30am 14.5 13.3 8.0 65 3.3 WSW 4 9 2 5 1015.2 1014.6 0.0
28/05:00am 15.3 12.8 8.1 62 3.7 SSW 11 13 6 7 1014.7 1014.1 0.0
28/04:30am 16.4 12.7 8.1 58 4.2 SSW 17 20 9 11 1014.1 1013.5 0.0
28/04:00am 17.4 13.6 7.7 53 4.9 SSW 17 20 9 11 1014.2 1013.6 0.0
28/03:30am 18.8 16.4 8.7 52 5.3 SSW 11 17 6 9 1014.2 1013.6 0.0
28/03:00am 19.3 16.6 8.9 51 5.5 WSW 13 19 7 10 1014.2 1013.6 0.0
28/02:30am 19.4 17.0 8.7 50 5.6 SW 11 15 6 8 1014.2 1013.6 0.0
28/02:00am 19.5 17.1 8.8 50 5.6 SW 11 17 6 9 1013.9 1013.4 0.0
28/01:30am 19.7 18.2 9.0 50 5.7 WSW 7 11 4 6 1013.8 1013.3 0.0
28/01:00am 19.8 17.8 8.5 48 5.9 SW 9 15 5 8 1013.9 1013.4 0.0
28/12:30am 18.9 16.9 8.8 52 5.3 WSW 9 11 5 6 1014.3 1013.7 0.0
28/12:00am 18.5 16.0 8.2 51 5.3 SSW 11 15 6 8 1014.3 1013.7 0.0
 
Date/Time
EST
Temp
°C
App
Temp
°C
Dew
Point
Rel
Hum
%
Delta-T
°C
Wind Press
QNH
hPa
Press
MSL
hPa
Rain
since 9 am
mm
Dir
 
Spd
km/h
Gust
km/h
Spd
kts
Gust
kts
27/11:30pm 19.4 16.0 7.8 47 6.0 S 15 20 8 11 1014.4 1013.8 0.0
27/11:00pm 20.0 15.7 8.0 46 6.3 SSW 20 26 11 14 1014.7 1014.1 0.0
27/10:30pm 20.8 16.0 8.8 46 6.4 SSW 24 30 13 16 1014.7 1014.1 0.0
27/10:00pm 21.2 14.6 8.5 44 6.7 SSW 33 46 18 25 1015.2 1014.6 0.0
27/09:30pm 21.3 17.0 9.2 46 6.5 SSW 22 30 12 16 1014.9 1014.3 0.0
27/09:00pm 21.8 16.6 10.3 48 6.3 SSW 28 39 15 21 1014.8 1014.2 0.0
27/08:30pm 22.2 16.0 11.3 50 6.1 SSW 35 50 19 27 1014.4 1013.8 0.0
27/08:00pm 22.6 15.7 11.7 50 6.2 SSW 39 56 21 30 1013.8 1013.3 0.0
27/07:30pm 23.3 15.8 12.0 49 6.5 SSW 43 56 23 30 1013.4 1012.9 0.0
27/07:00pm 25.0 19.0 12.2 44 7.4 SSW 35 46 19 25 1012.5 1011.9 0.0
27/06:37pm 25.3 19.3 12.2 44 7.6 SSW 35 54 19 29 1012.0 1011.4 0.0
27/06:30pm 25.4 19.0 11.9 43 7.8 SSW 37 48 20 26 1011.9 1011.3 0.0
27/06:00pm 26.7 20.6 11.6 39 8.7 SSW 35 46 19 25 1011.2 1010.6 0.0
27/05:30pm 28.6 24.3 12.1 36 9.7 SSW 26 35 14 19 1010.2 1009.6 0.0
27/05:00pm 29.7 26.4 11.7 33 10.5 SW 20 28 11 15 1009.6 1009.0 0.0
27/04:30pm 31.4 26.8 11.2 29 11.8 WSW 26 37 14 20 1009.2 1008.6 0.0
27/04:00pm 31.5 27.0 11.3 29 11.9 W 26 37 14 20 1008.8 1008.2 0.0
27/03:30pm 31.6 27.5 11.4 29 11.9 WNW 24 35 13 19 1008.8 1008.2 0.0
27/03:00pm 32.0 26.8 11.7 28 12.0 WSW 30 43 16 23 1008.9 1008.3 0.0
27/02:30pm 31.9 25.8 11.7 29 11.9 WSW 35 50 19 27 1008.8 1008.2 0.0
27/02:02pm 32.0 26.3 11.7 28 12.0 W 33 52 18 28 1008.8 1008.2 0.0
27/02:00pm 32.1 26.6 12.3 29 11.8 WSW 33 48 18 26 1009.0 1008.4 0.0
27/01:35pm 31.4 25.9 11.7 29 11.6 W 32 50 17 27 1009.1 1008.5 0.0
27/01:30pm 31.8 26.4 12.1 30 11.7 W 32 41 17 22 1009.1 1008.5 0.0
27/01:03pm 32.1 27.1 12.3 29 11.8 WSW 30 48 16 26 1009.5 1008.9 0.0
27/01:00pm 32.1 27.1 12.3 29 11.8 W 30 41 16 22 1009.6 1009.0 0.0
27/12:30pm 31.3 27.2 12.6 31 11.2 W 26 37 14 20 1010.2 1009.6 0.0
27/12:00pm 30.8 27.4 13.6 35 10.4 W 24 32 13 17 1010.7 1010.1 0.0
27/11:30am 30.6 27.8 14.3 37 10.0 W 22 30 12 16 1011.2 1010.6 0.0
27/11:00am 29.2 26.9 14.2 40 9.1 WNW 19 32 10 17 1011.6 1011.0 0.0
27/10:30am 28.6 26.7 15.2 44 8.2 W 19 26 10 14 1012.2 1011.6 0.0
27/10:00am 27.6 25.7 15.3 47 7.5 W 19 26 10 14 1012.7 1012.1 0.0
27/09:30am 26.0 24.6 16.5 55 5.9 WNW 19 28 10 15 1013.1 1012.5 0.0
27/09:00am 23.7 23.6 17.0 66 4.2 WNW 13 19 7 10 1013.1 1012.5 0.0
27/08:30am 22.0 23.7 17.2 74 3.0 N 4 9 2 5 1013.0 1012.4 0.0
27/08:00am 20.0 21.3 17.2 84 1.7 NE 6 7 3 4 1013.0 1012.4 0.0
27/07:30am 17.7 19.6 16.6 93 0.7 ENE 2 6 1 3 1012.5 1011.9 0.0
27/07:00am 15.3 16.6 14.0 92 0.7 CALM 0 0 0 0 1012.1 1011.5 0.0
27/06:30am 15.3 16.5 13.7 90 0.9 CALM 0 0 0 0 1012.1 1011.5 0.0
27/06:00am 16.9 17.6 15.6 92 0.8 ENE 6 7 3 4 1011.8 1011.2 0.0
27/05:30am 17.2 17.5 16.1 93 0.7 ENE 9 11 5 6 1011.5 1010.9 0.0
27/05:00am 17.1 17.3 15.8 92 0.8 NE 9 11 5 6 1011.2 1010.6 0.0
27/04:30am 17.0 16.7 15.5 91 0.9 NE 11 11 6 6 1011.4 1010.8 0.0
27/04:00am 17.5 17.7 15.8 90 1.0 NE 9 11 5 6 1011.4 1010.8 0.0
27/03:30am 17.9 18.2 15.9 88 1.2 ENE 9 11 5 6 1011.5 1010.9 0.0
27/03:00am 18.2 18.2 16.2 88 1.2 ENE 11 13 6 7 1011.2 1010.6 0.0
27/02:30am 18.4 18.7 16.0 86 1.4 NE 9 11 5 6 1011.3 1010.7 0.0
27/02:00am 19.0 19.5 16.6 86 1.5 NE 9 13 5 7 1011.5 1010.9 0.0
27/01:30am 18.9 19.0 16.5 86 1.5 NE 11 13 6 7 1011.6 1011.0 0.0
27/01:00am 18.6 18.1 16.0 85 1.6 NE 13 15 7 8 1011.8 1011.2 0.0
27/12:30am 19.0 19.1 16.4 85 1.6 NE 11 13 6 7 1012.1 1011.5 0.0
27/12:00am 19.1 18.7 16.3 84 1.7 ENE 13 15 7 8 1012.3 1011.7 0.0
 
Date/Time
EST
Temp
°C
App
Temp
°C
Dew
Point
Rel
Hum
%
Delta-T
°C
Wind Press
QNH
hPa
Press
MSL
hPa
Rain
since 9 am
mm
Dir
 
Spd
km/h
Gust
km/h
Spd
kts
Gust
kts
26/11:30pm 19.2 18.8 16.1 82 1.9 ENE 13 15 7 8 1012.5 1011.9 0.0
26/11:00pm 19.3 19.1 15.6 79 2.2 ENE 11 15 6 8 1012.5 1011.9 0.0
26/10:30pm 19.5 18.9 15.6 78 2.3 ENE 13 15 7 8 1012.5 1011.9 0.0
26/10:00pm 19.7 19.2 14.9 74 2.8 NE 11 15 6 8 1012.6 1012.0 0.0
26/09:30pm 20.7 20.0 15.3 71 3.2 ENE 13 17 7 9 1012.7 1012.1 0.0
26/09:00pm 21.0 20.1 14.9 68 3.6 ENE 13 17 7 9 1012.7 1012.1 0.0
26/08:30pm 20.8 18.9 10.6 52 5.6 ENE 11 13 6 7 1012.8 1012.2 0.0
26/08:00pm 22.1 20.0 9.9 46 6.7 NNE 11 13 6 7 1012.5 1011.9 0.0
26/07:30pm 22.5 20.4 9.6 44 7.0 NNE 11 13 6 7 1012.3 1011.7 0.0
26/07:00pm 22.8 21.0 9.6 43 7.2 NNE 9 11 5 6 1012.1 1011.5 0.0
26/06:30pm 24.2 22.4 9.4 39 8.1 NNE 9 11 5 6 1011.9 1011.3 0.0
26/06:00pm 25.6 23.8 9.4 36 9.0 N 9 11 5 6 1011.9 1011.3 0.0
26/05:30pm 26.9 25.2 9.7 34 9.6 N 9 9 5 5 1011.8 1011.2 0.0
26/05:00pm 27.7 25.5 9.5 32 10.2 NNW 11 11 6 6 1011.5 1010.9 0.0
26/04:30pm 28.9 25.1 9.1 29 11.1 NNW 19 26 10 14 1011.3 1010.7 0.0
26/04:00pm 30.5 27.2 9.4 27 11.9 NNW 17 26 9 14 1011.3 1010.7 0.0
26/03:30pm 31.1 27.4 9.3 26 12.3 NNW 19 24 10 13 1011.2 1010.6 0.0
26/03:00pm 31.1 27.9 9.9 27 12.1 N 17 26 9 14 1011.2 1010.6 0.0
26/02:30pm 30.8 26.9 9.6 27 12.0 NNW 20 32 11 17 1011.3 1010.7 0.0
26/02:00pm 30.8 27.1 10.2 28 11.8 NNW 20 30 11 16 1012.2 1011.6 0.0
26/01:30pm 30.8 27.5 9.6 27 12.0 NNW 17 28 9 15 1013.0 1012.4 0.0
26/01:00pm 30.0 26.8 10.0 29 11.4 NNW 17 28 9 15 1013.6 1013.1 0.0
26/12:30pm 29.9 27.1 11.4 32 10.8 NW 17 26 9 14 1014.5 1013.9 0.0
26/12:00pm 28.6 25.2 11.2 34 10.0 NNW 20 30 11 16 1015.2 1014.6 0.0
26/11:30am 28.5 25.9 12.0 36 9.6 NNW 17 28 9 15 1015.8 1015.2 0.0
26/11:00am 26.9 24.0 12.2 40 8.6 NNW 19 24 10 13 1016.4 1015.8 0.0
26/10:30am 26.3 23.3 12.0 41 8.3 NNW 19 30 10 16 1016.9 1016.3 0.0
26/10:00am 25.0 23.8 13.9 50 6.6 NNW 13 19 7 10 1017.2 1016.6 0.0
26/09:30am 24.0 23.3 14.4 55 5.7 N 11 17 6 9 1017.6 1017.0 0.0
26/09:00am 22.2 21.8 15.1 64 4.2 N 11 17 6 9 1017.6 1017.0 0.0
26/08:30am 20.8 20.6 15.6 72 3.1 N 11 17 6 9 1017.4 1016.8 0.0
26/08:00am 19.6 19.6 15.3 76 2.6 NNE 9 13 5 7 1017.4 1016.8 0.0
26/07:30am 17.9 18.1 14.8 82 1.8 E 7 9 4 5 1017.2 1016.6 0.0
26/07:00am 15.7 15.1 13.5 87 1.2 E 9 11 5 6 1016.9 1016.3 0.0
26/06:30am 15.3 14.5 13.0 86 1.3 ENE 9 11 5 6 1016.6 1016.0 0.0
26/06:00am 15.5 14.7 12.8 84 1.5 ENE 9 11 5 6 1016.5 1015.9 0.0
26/05:30am 15.6 14.2 12.2 80 1.9 ENE 11 13 6 7 1016.4 1015.8 0.0
26/05:00am 15.5 13.6 11.7 78 2.1 E 13 15 7 8 1016.3 1015.7 0.0
26/04:30am 15.4 14.0 11.0 75 2.4 ENE 9 11 5 6 1016.3 1015.7 0.0

Other Formats:

Comma delimited format used in spreadsheet applications
http://www.bom.gov.au/fwo/IDQ60801/IDQ60801.94398.axf

JavaScript Object Notation format (JSON) in row-major order
http://www.bom.gov.au/fwo/IDQ60801/IDQ60801.94398.json